sensor_id;sensor_type;location;lat;lon;timestamp;temperature;humidity
70244;DHT22;57634;51.136;17.024;2023-03-01T00:02:16;0.40;69.40
70244;DHT22;57634;51.136;17.024;2023-03-01T00:05:17;0.40;69.60
70244;DHT22;57634;51.136;17.024;2023-03-01T00:08:45;0.40;69.70
70244;DHT22;57634;51.136;17.024;2023-03-01T00:11:46;0.40;69.80
70244;DHT22;57634;51.136;17.024;2023-03-01T00:14:47;0.30;70.00
70244;DHT22;57634;51.136;17.024;2023-03-01T00:17:48;0.30;70.00
70244;DHT22;57634;51.136;17.024;2023-03-01T00:20:52;0.30;70.00
70244;DHT22;57634;51.136;17.024;2023-03-01T00:23:54;0.30;70.10
70244;DHT22;57634;51.136;17.024;2023-03-01T00:26:56;0.30;70.20
70244;DHT22;57634;51.136;17.024;2023-03-01T00:29:57;0.30;70.30
70244;DHT22;57634;51.136;17.024;2023-03-01T00:32:58;0.30;70.40
70244;DHT22;57634;51.136;17.024;2023-03-01T00:36:00;0.20;70.40
70244;DHT22;57634;51.136;17.024;2023-03-01T00:39:04;0.20;70.50
70244;DHT22;57634;51.136;17.024;2023-03-01T00:42:07;0.10;70.50
70244;DHT22;57634;51.136;17.024;2023-03-01T00:45:09;0.10;70.60
70244;DHT22;57634;51.136;17.024;2023-03-01T00:48:39;0.10;70.70
70244;DHT22;57634;51.136;17.024;2023-03-01T00:51:42;0.10;70.80
70244;DHT22;57634;51.136;17.024;2023-03-01T00:54:44;0.10;71.00
70244;DHT22;57634;51.136;17.024;2023-03-01T00:57:45;0.00;71.00
70244;DHT22;57634;51.136;17.024;2023-03-01T01:00:47;0.00;71.10
70244;DHT22;57634;51.136;17.024;2023-03-01T01:03:54;-0.10;71.10
70244;DHT22;57634;51.136;17.024;2023-03-01T01:06:56;-0.10;71.10
70244;DHT22;57634;51.136;17.024;2023-03-01T01:09:57;-0.10;71.20
70244;DHT22;57634;51.136;17.024;2023-03-01T01:12:58;-0.20;71.30
70244;DHT22;57634;51.136;17.024;2023-03-01T01:16:01;-0.20;71.50
70244;DHT22;57634;51.136;17.024;2023-03-01T01:19:03;-0.20;71.70
70244;DHT22;57634;51.136;17.024;2023-03-01T01:22:04;-0.20;71.70
70244;DHT22;57634;51.136;17.024;2023-03-01T01:25:06;-0.30;71.70
70244;DHT22;57634;51.136;17.024;2023-03-01T01:28:36;-0.30;71.80
70244;DHT22;57634;51.136;17.024;2023-03-01T01:31:39;-0.30;72.00
70244;DHT22;57634;51.136;17.024;2023-03-01T01:34:41;-0.30;72.00
70244;DHT22;57634;51.136;17.024;2023-03-01T01:37:42;-0.30;72.10
70244;DHT22;57634;51.136;17.024;2023-03-01T01:40:45;-0.30;72.10
70244;DHT22;57634;51.136;17.024;2023-03-01T01:47:07;-0.30;72.40
70244;DHT22;57634;51.136;17.024;2023-03-01T01:50:17;-0.40;72.50
70244;DHT22;57634;51.136;17.024;2023-03-01T01:53:48;-0.30;72.50
70244;DHT22;57634;51.136;17.024;2023-03-01T01:56:55;-0.40;72.60
70244;DHT22;57634;51.136;17.024;2023-03-01T02:00:03;-0.40;72.60
70244;DHT22;57634;51.136;17.024;2023-03-01T02:03:10;-0.40;72.70
70244;DHT22;57634;51.136;17.024;2023-03-01T02:06:19;-0.40;72.70
70244;DHT22;57634;51.136;17.024;2023-03-01T02:09:23;-0.40;72.80
70244;DHT22;57634;51.136;17.024;2023-03-01T02:12:25;-0.40;72.80
70244;DHT22;57634;51.136;17.024;2023-03-01T02:15:32;-0.40;72.70
70244;DHT22;57634;51.136;17.024;2023-03-01T02:19:01;-0.40;72.80
70244;DHT22;57634;51.136;17.024;2023-03-01T02:25:29;-0.50;73.00
70244;DHT22;57634;51.136;17.024;2023-03-01T02:28:33;-0.60;73.00
70244;DHT22;57634;51.136;17.024;2023-03-01T02:31:35;-0.60;73.10
70244;DHT22;57634;51.136;17.024;2023-03-01T02:34:42;-0.60;73.10
70244;DHT22;57634;51.136;17.024;2023-03-01T02:37:45;-0.60;73.20
70244;DHT22;57634;51.136;17.024;2023-03-01T02:41:15;-0.60;73.30
70244;DHT22;57634;51.136;17.024;2023-03-01T02:44:18;-0.70;73.40
70244;DHT22;57634;51.136;17.024;2023-03-01T02:47:20;-0.70;73.40
70244;DHT22;57634;51.136;17.024;2023-03-01T02:56:45;-1.00;73.50
70244;DHT22;57634;51.136;17.024;2023-03-01T02:59:51;-0.70;73.70
70244;DHT22;57634;51.136;17.024;2023-03-01T03:02:54;-0.70;73.70
70244;DHT22;57634;51.136;17.024;2023-03-01T03:06:24;-0.70;73.70
70244;DHT22;57634;51.136;17.024;2023-03-01T03:09:25;-0.70;73.70
70244;DHT22;57634;51.136;17.024;2023-03-01T03:12:27;-0.70;73.90
70244;DHT22;57634;51.136;17.024;2023-03-01T03:15:29;-0.70;74.00
70244;DHT22;57634;51.136;17.024;2023-03-01T03:18:31;-0.70;74.00
70244;DHT22;57634;51.136;17.024;2023-03-01T03:21:33;-0.70;74.00
70244;DHT22;57634;51.136;17.024;2023-03-01T03:24:34;-0.70;74.00
70244;DHT22;57634;51.136;17.024;2023-03-01T03:27:42;-0.70;74.20
70244;DHT22;57634;51.136;17.024;2023-03-01T03:30:44;-0.70;74.30
70244;DHT22;57634;51.136;17.024;2023-03-01T03:33:47;-0.80;74.30
70244;DHT22;57634;51.136;17.024;2023-03-01T03:36:53;-0.80;74.40
70244;DHT22;57634;51.136;17.024;2023-03-01T03:40:29;-0.80;74.30
70244;DHT22;57634;51.136;17.024;2023-03-01T03:43:32;-0.80;74.40
70244;DHT22;57634;51.136;17.024;2023-03-01T03:46:34;-0.80;74.40
70244;DHT22;57634;51.136;17.024;2023-03-01T03:49:36;-0.80;74.50
70244;DHT22;57634;51.136;17.024;2023-03-01T03:52:37;-0.90;74.30
70244;DHT22;57634;51.136;17.024;2023-03-01T03:55:39;-0.90;74.40
70244;DHT22;57634;51.136;17.024;2023-03-01T03:58:41;-1.00;74.30
70244;DHT22;57634;51.136;17.024;2023-03-01T04:01:42;-1.00;74.40
70244;DHT22;57634;51.136;17.024;2023-03-01T04:04:45;-1.00;74.50
70244;DHT22;57634;51.136;17.024;2023-03-01T04:07:46;-1.00;74.50
70244;DHT22;57634;51.136;17.024;2023-03-01T04:10:51;-1.10;74.60
70244;DHT22;57634;51.136;17.024;2023-03-01T04:13:54;-1.10;74.70
70244;DHT22;57634;51.136;17.024;2023-03-01T04:17:22;-1.10;74.90
70244;DHT22;57634;51.136;17.024;2023-03-01T04:20:26;-1.00;75.10
70244;DHT22;57634;51.136;17.024;2023-03-01T04:23:29;-1.00;75.20
70244;DHT22;57634;51.136;17.024;2023-03-01T04:26:30;-1.00;75.20
70244;DHT22;57634;51.136;17.024;2023-03-01T04:29:31;-1.00;75.20
70244;DHT22;57634;51.136;17.024;2023-03-01T04:32:32;-1.00;75.00
70244;DHT22;57634;51.136;17.024;2023-03-01T04:35:35;-1.00;74.90
70244;DHT22;57634;51.136;17.024;2023-03-01T04:38:38;-1.10;74.80
70244;DHT22;57634;51.136;17.024;2023-03-01T04:41:40;-1.10;74.80
70244;DHT22;57634;51.136;17.024;2023-03-01T04:44:44;-1.20;74.80
70244;DHT22;57634;51.136;17.024;2023-03-01T04:47:46;-1.20;74.80
70244;DHT22;57634;51.136;17.024;2023-03-01T04:50:48;-1.20;74.80
70244;DHT22;57634;51.136;17.024;2023-03-01T04:53:50;-1.30;74.80
70244;DHT22;57634;51.136;17.024;2023-03-01T04:57:17;-1.30;74.90
70244;DHT22;57634;51.136;17.024;2023-03-01T05:00:19;-1.30;75.00
70244;DHT22;57634;51.136;17.024;2023-03-01T05:03:22;-1.30;75.20
70244;DHT22;57634;51.136;17.024;2023-03-01T05:06:23;-1.30;75.40
70244;DHT22;57634;51.136;17.024;2023-03-01T05:09:25;-1.30;75.40
70244;DHT22;57634;51.136;17.024;2023-03-01T05:12:26;-1.30;75.60
70244;DHT22;57634;51.136;17.024;2023-03-01T05:15:29;-1.30;75.50
70244;DHT22;57634;51.136;17.024;2023-03-01T05:18:32;-1.30;75.60
70244;DHT22;57634;51.136;17.024;2023-03-01T05:21:34;-0.50;76.00
70244;DHT22;57634;51.136;17.024;2023-03-01T05:24:45;-1.30;75.60
70244;DHT22;57634;51.136;17.024;2023-03-01T05:27:47;-1.30;75.50
70244;DHT22;57634;51.136;17.024;2023-03-01T05:31:17;-1.30;75.50
70244;DHT22;57634;51.136;17.024;2023-03-01T05:34:18;-1.30;75.60
70244;DHT22;57634;51.136;17.024;2023-03-01T05:37:20;-1.40;75.60
70244;DHT22;57634;51.136;17.024;2023-03-01T05:40:23;-1.40;75.60
70244;DHT22;57634;51.136;17.024;2023-03-01T05:43:25;-1.40;75.70
70244;DHT22;57634;51.136;17.024;2023-03-01T05:46:27;-1.40;75.80
70244;DHT22;57634;51.136;17.024;2023-03-01T05:49:31;-1.30;76.10
70244;DHT22;57634;51.136;17.024;2023-03-01T05:52:33;-1.30;76.20
70244;DHT22;57634;51.136;17.024;2023-03-01T05:55:36;-1.20;76.40
70244;DHT22;57634;51.136;17.024;2023-03-01T05:58:37;-1.10;76.60
70244;DHT22;57634;51.136;17.024;2023-03-01T06:01:39;-1.00;76.80
70244;DHT22;57634;51.136;17.024;2023-03-01T06:04:41;-0.80;77.00
70244;DHT22;57634;51.136;17.024;2023-03-01T06:07:42;-0.60;77.20
70244;DHT22;57634;51.136;17.024;2023-03-01T06:11:11;-0.30;77.30
70244;DHT22;57634;51.136;17.024;2023-03-01T06:14:12;0.00;77.20
70244;DHT22;57634;51.136;17.024;2023-03-01T06:17:15;0.30;76.90
70244;DHT22;57634;51.136;17.024;2023-03-01T06:20:22;0.50;76.50
70244;DHT22;57634;51.136;17.024;2023-03-01T06:23:24;0.80;76.20
70244;DHT22;57634;51.136;17.024;2023-03-01T06:26:25;1.10;75.80
70244;DHT22;57634;51.136;17.024;2023-03-01T06:29:26;1.40;75.20
70244;DHT22;57634;51.136;17.024;2023-03-01T06:32:28;1.80;74.80
70244;DHT22;57634;51.136;17.024;2023-03-01T06:35:33;2.10;74.40
70244;DHT22;57634;51.136;17.024;2023-03-01T06:38:38;2.50;73.90
70244;DHT22;57634;51.136;17.024;2023-03-01T06:41:42;2.90;73.40
70244;DHT22;57634;51.136;17.024;2023-03-01T06:45:11;3.20;72.50
70244;DHT22;57634;51.136;17.024;2023-03-01T06:48:12;3.70;71.90
70244;DHT22;57634;51.136;17.024;2023-03-01T06:51:13;4.10;71.20
70244;DHT22;57634;51.136;17.024;2023-03-01T06:54:15;4.50;70.50
70244;DHT22;57634;51.136;17.024;2023-03-01T06:57:23;4.90;69.60
70244;DHT22;57634;51.136;17.024;2023-03-01T07:00:25;5.30;68.70
70244;DHT22;57634;51.136;17.024;2023-03-01T07:03:29;5.80;67.50
70244;DHT22;57634;51.136;17.024;2023-03-01T07:06:30;6.10;66.30
70244;DHT22;57634;51.136;17.024;2023-03-01T07:09:31;6.40;65.40
70244;DHT22;57634;51.136;17.024;2023-03-01T07:12:32;6.80;64.50
70244;DHT22;57634;51.136;17.024;2023-03-01T07:15:34;7.20;63.50
70244;DHT22;57634;51.136;17.024;2023-03-01T07:18:35;7.60;62.70
70244;DHT22;57634;51.136;17.024;2023-03-01T07:21:37;8.10;61.80
70244;DHT22;57634;51.136;17.024;2023-03-01T07:25:09;8.60;60.30
70244;DHT22;57634;51.136;17.024;2023-03-01T07:28:10;9.10;58.80
70244;DHT22;57634;51.136;17.024;2023-03-01T07:31:12;9.40;57.60
70244;DHT22;57634;51.136;17.024;2023-03-01T07:34:13;9.70;56.40
70244;DHT22;57634;51.136;17.024;2023-03-01T07:37:14;10.00;55.40
70244;DHT22;57634;51.136;17.024;2023-03-01T07:40:16;10.20;54.50
70244;DHT22;57634;51.136;17.024;2023-03-01T07:43:18;10.40;53.90
70244;DHT22;57634;51.136;17.024;2023-03-01T07:46:20;10.60;53.30
70244;DHT22;57634;51.136;17.024;2023-03-01T07:49:22;10.80;52.80
70244;DHT22;57634;51.136;17.024;2023-03-01T07:52:23;11.00;52.40
70244;DHT22;57634;51.136;17.024;2023-03-01T07:55:25;11.20;51.50
70244;DHT22;57634;51.136;17.024;2023-03-01T07:58:27;11.30;51.00
70244;DHT22;57634;51.136;17.024;2023-03-01T08:01:28;11.40;50.40
70244;DHT22;57634;51.136;17.024;2023-03-01T08:04:29;11.50;50.10
70244;DHT22;57634;51.136;17.024;2023-03-01T08:07:30;11.70;49.40
70244;DHT22;57634;51.136;17.024;2023-03-01T08:10:59;11.80;49.00
70244;DHT22;57634;51.136;17.024;2023-03-01T08:14:00;12.10;48.30
70244;DHT22;57634;51.136;17.024;2023-03-01T08:17:02;12.30;47.40
70244;DHT22;57634;51.136;17.024;2023-03-01T08:20:04;12.40;46.40
70244;DHT22;57634;51.136;17.024;2023-03-01T08:23:08;12.60;45.70
70244;DHT22;57634;51.136;17.024;2023-03-01T08:26:17;12.60;45.20
70244;DHT22;57634;51.136;17.024;2023-03-01T08:29:19;12.60;44.60
70244;DHT22;57634;51.136;17.024;2023-03-01T08:32:20;12.60;44.40
70244;DHT22;57634;51.136;17.024;2023-03-01T08:35:21;12.50;44.30
70244;DHT22;57634;51.136;17.024;2023-03-01T08:38:23;12.40;44.40
70244;DHT22;57634;51.136;17.024;2023-03-01T08:41:25;12.30;44.60
70244;DHT22;57634;51.136;17.024;2023-03-01T08:44:26;12.20;44.70
70244;DHT22;57634;51.136;17.024;2023-03-01T08:47:54;12.20;45.00
70244;DHT22;57634;51.136;17.024;2023-03-01T08:50:55;12.10;44.80
70244;DHT22;57634;51.136;17.024;2023-03-01T08:53:57;12.10;44.70
70244;DHT22;57634;51.136;17.024;2023-03-01T08:57:01;12.10;44.60
70244;DHT22;57634;51.136;17.024;2023-03-01T09:00:03;12.10;44.20
70244;DHT22;57634;51.136;17.024;2023-03-01T09:03:09;12.00;44.00
70244;DHT22;57634;51.136;17.024;2023-03-01T09:06:11;12.10;44.20
70244;DHT22;57634;51.136;17.024;2023-03-01T09:09:14;12.10;44.00
70244;DHT22;57634;51.136;17.024;2023-03-01T09:12:19;12.00;43.60
70244;DHT22;57634;51.136;17.024;2023-03-01T09:15:20;11.80;44.00
70244;DHT22;57634;51.136;17.024;2023-03-01T09:18:21;11.90;44.10
70244;DHT22;57634;51.136;17.024;2023-03-01T09:21:23;11.90;44.10
70244;DHT22;57634;51.136;17.024;2023-03-01T09:24:51;11.90;43.60
70244;DHT22;57634;51.136;17.024;2023-03-01T09:27:53;11.70;43.60
70244;DHT22;57634;51.136;17.024;2023-03-01T09:30:58;11.70;43.90
70244;DHT22;57634;51.136;17.024;2023-03-01T09:34:00;11.60;43.50
70244;DHT22;57634;51.136;17.024;2023-03-01T09:37:01;11.60;43.60
70244;DHT22;57634;51.136;17.024;2023-03-01T09:40:16;11.50;43.50
70244;DHT22;57634;51.136;17.024;2023-03-01T09:43:41;11.40;43.70
70244;DHT22;57634;51.136;17.024;2023-03-01T09:47:02;11.40;44.00
70244;DHT22;57634;51.136;17.024;2023-03-01T09:50:11;11.50;43.80
70244;DHT22;57634;51.136;17.024;2023-03-01T09:53:16;11.60;43.10
70244;DHT22;57634;51.136;17.024;2023-03-01T09:56:24;11.50;42.60
70244;DHT22;57634;51.136;17.024;2023-03-01T09:59:37;11.40;42.50
70244;DHT22;57634;51.136;17.024;2023-03-01T10:02:44;11.30;43.10
70244;DHT22;57634;51.136;17.024;2023-03-01T10:06:21;11.30;43.40
70244;DHT22;57634;51.136;17.024;2023-03-01T10:09:29;11.40;42.60
70244;DHT22;57634;51.136;17.024;2023-03-01T10:12:40;11.40;42.30
70244;DHT22;57634;51.136;17.024;2023-03-01T10:15:50;11.40;42.40
70244;DHT22;57634;51.136;17.024;2023-03-01T10:18:59;11.40;42.00
70244;DHT22;57634;51.136;17.024;2023-03-01T10:22:29;11.30;41.90
70244;DHT22;57634;51.136;17.024;2023-03-01T10:31:57;11.30;42.40
70244;DHT22;57634;51.136;17.024;2023-03-01T10:34:58;11.40;42.50
70244;DHT22;57634;51.136;17.024;2023-03-01T10:38:08;11.60;42.50
70244;DHT22;57634;51.136;17.024;2023-03-01T10:41:10;11.70;41.90
70244;DHT22;57634;51.136;17.024;2023-03-01T10:44:47;11.80;41.90
70244;DHT22;57634;51.136;17.024;2023-03-01T10:51:06;12.10;41.10
70244;DHT22;57634;51.136;17.024;2023-03-01T10:54:25;12.20;40.90
70244;DHT22;57634;51.136;17.024;2023-03-01T10:57:32;12.30;40.80
70244;DHT22;57634;51.136;17.024;2023-03-01T11:01:03;12.20;40.30
70244;DHT22;57634;51.136;17.024;2023-03-01T11:04:13;12.00;40.30
70244;DHT22;57634;51.136;17.024;2023-03-01T11:07:14;11.90;40.30
70244;DHT22;57634;51.136;17.024;2023-03-01T11:10:23;11.80;40.50
70244;DHT22;57634;51.136;17.024;2023-03-01T11:13:28;11.70;40.70
70244;DHT22;57634;51.136;17.024;2023-03-01T11:16:39;11.60;40.70
70244;DHT22;57634;51.136;17.024;2023-03-01T11:23:22;11.20;40.90
70244;DHT22;57634;51.136;17.024;2023-03-01T11:26:24;11.20;40.90
70244;DHT22;57634;51.136;17.024;2023-03-01T11:29:34;11.10;41.00
70244;DHT22;57634;51.136;17.024;2023-03-01T11:32:42;11.00;41.30
70244;DHT22;57634;51.136;17.024;2023-03-01T11:36:15;11.10;41.50
70244;DHT22;57634;51.136;17.024;2023-03-01T11:38:57;11.10;40.60
70244;DHT22;57634;51.136;17.024;2023-03-01T11:45:58;10.70;40.40
70244;DHT22;57634;51.136;17.024;2023-03-01T12:05:46;10.00;40.70
70244;DHT22;57634;51.136;17.024;2023-03-01T12:25:55;9.60;40.60
70244;DHT22;57634;51.136;17.024;2023-03-01T12:35:36;10.00;40.60
70244;DHT22;57634;51.136;17.024;2023-03-01T12:42:36;9.90;39.10
70244;DHT22;57634;51.136;17.024;2023-03-01T12:45:47;9.80;39.30
70244;DHT22;57634;51.136;17.024;2023-03-01T12:55:42;9.70;39.10
70244;DHT22;57634;51.136;17.024;2023-03-01T12:58:58;9.70;38.70
70244;DHT22;57634;51.136;17.024;2023-03-01T13:05:23;9.70;38.80
70244;DHT22;57634;51.136;17.024;2023-03-01T13:15:26;9.60;38.60
70244;DHT22;57634;51.136;17.024;2023-03-01T13:18:29;9.60;38.60
70244;DHT22;57634;51.136;17.024;2023-03-01T13:21:32;9.60;38.70
70244;DHT22;57634;51.136;17.024;2023-03-01T13:24:40;9.50;38.70
70244;DHT22;57634;51.136;17.024;2023-03-01T13:34:40;9.40;39.40
70244;DHT22;57634;51.136;17.024;2023-03-01T13:37:44;9.30;39.50
70244;DHT22;57634;51.136;17.024;2023-03-01T13:40:58;9.20;39.90
70244;DHT22;57634;51.136;17.024;2023-03-01T13:44:34;9.30;40.30
70244;DHT22;57634;51.136;17.024;2023-03-01T13:47:41;9.20;40.30
70244;DHT22;57634;51.136;17.024;2023-03-01T13:50:49;9.00;40.30
70244;DHT22;57634;51.136;17.024;2023-03-01T13:53:53;8.80;40.60
70244;DHT22;57634;51.136;17.024;2023-03-01T13:56:58;8.80;40.90
70244;DHT22;57634;51.136;17.024;2023-03-01T14:00:00;8.80;41.10
70244;DHT22;57634;51.136;17.024;2023-03-01T14:03:11;8.80;41.20
70244;DHT22;57634;51.136;17.024;2023-03-01T14:06:38;8.80;41.30
70244;DHT22;57634;51.136;17.024;2023-03-01T14:09:43;8.80;41.40
70244;DHT22;57634;51.136;17.024;2023-03-01T14:19:23;8.70;41.40
70244;DHT22;57634;51.136;17.024;2023-03-01T14:22:59;8.60;41.50
70244;DHT22;57634;51.136;17.024;2023-03-01T14:26:01;8.50;41.80
70244;DHT22;57634;51.136;17.024;2023-03-01T14:29:04;8.50;42.00
70244;DHT22;57634;51.136;17.024;2023-03-01T14:32:15;8.40;42.10
70244;DHT22;57634;51.136;17.024;2023-03-01T14:35:26;8.30;42.20
70244;DHT22;57634;51.136;17.024;2023-03-01T14:38:37;8.20;42.20
70244;DHT22;57634;51.136;17.024;2023-03-01T14:42:05;8.20;42.30
70244;DHT22;57634;51.136;17.024;2023-03-01T14:45:11;8.20;42.30
70244;DHT22;57634;51.136;17.024;2023-03-01T14:48:13;8.20;42.20
70244;DHT22;57634;51.136;17.024;2023-03-01T14:51:14;8.10;42.50
70244;DHT22;57634;51.136;17.024;2023-03-01T14:54:24;8.00;42.80
70244;DHT22;57634;51.136;17.024;2023-03-01T14:57:27;7.90;43.00
70244;DHT22;57634;51.136;17.024;2023-03-01T15:00:30;7.90;43.20
70244;DHT22;57634;51.136;17.024;2023-03-01T15:03:37;7.90;43.20
70244;DHT22;57634;51.136;17.024;2023-03-01T15:06:41;7.90;43.30
70244;DHT22;57634;51.136;17.024;2023-03-01T15:10:17;7.90;43.40
70244;DHT22;57634;51.136;17.024;2023-03-01T15:13:25;7.90;43.50
70244;DHT22;57634;51.136;17.024;2023-03-01T15:16:29;7.90;43.50
70244;DHT22;57634;51.136;17.024;2023-03-01T15:19:31;7.90;43.70
70244;DHT22;57634;51.136;17.024;2023-03-01T15:22:35;7.80;43.70
70244;DHT22;57634;51.136;17.024;2023-03-01T15:25:36;7.80;43.80
70244;DHT22;57634;51.136;17.024;2023-03-01T15:28:49;7.80;43.90
70244;DHT22;57634;51.136;17.024;2023-03-01T15:35:42;7.80;44.00
70244;DHT22;57634;51.136;17.024;2023-03-01T15:38:55;7.70;43.90
70244;DHT22;57634;51.136;17.024;2023-03-01T15:41:59;7.70;44.00
70244;DHT22;57634;51.136;17.024;2023-03-01T15:45:08;7.70;44.10
70244;DHT22;57634;51.136;17.024;2023-03-01T15:48:35;7.70;44.20
70244;DHT22;57634;51.136;17.024;2023-03-01T15:51:37;7.60;44.20
70244;DHT22;57634;51.136;17.024;2023-03-01T15:54:39;7.50;44.30
70244;DHT22;57634;51.136;17.024;2023-03-01T15:57:41;7.50;44.50
70244;DHT22;57634;51.136;17.024;2023-03-01T16:00:44;7.40;44.60
70244;DHT22;57634;51.136;17.024;2023-03-01T16:03:46;7.40;44.80
70244;DHT22;57634;51.136;17.024;2023-03-01T16:06:47;7.30;44.90
70244;DHT22;57634;51.136;17.024;2023-03-01T16:09:56;7.30;45.10
70244;DHT22;57634;51.136;17.024;2023-03-01T16:12:58;7.20;45.30
70244;DHT22;57634;51.136;17.024;2023-03-01T16:16:00;7.20;45.50
70244;DHT22;57634;51.136;17.024;2023-03-01T16:19:02;7.20;45.70
70244;DHT22;57634;51.136;17.024;2023-03-01T16:22:03;7.10;45.80
70244;DHT22;57634;51.136;17.024;2023-03-01T16:25:31;7.10;46.20
70244;DHT22;57634;51.136;17.024;2023-03-01T16:28:33;7.00;46.80
70244;DHT22;57634;51.136;17.024;2023-03-01T16:31:34;6.90;47.20
70244;DHT22;57634;51.136;17.024;2023-03-01T16:34:35;6.80;47.50
70244;DHT22;57634;51.136;17.024;2023-03-01T16:37:38;6.80;47.90
70244;DHT22;57634;51.136;17.024;2023-03-01T16:40:49;6.70;48.20
70244;DHT22;57634;51.136;17.024;2023-03-01T16:43:51;6.70;48.50
70244;DHT22;57634;51.136;17.024;2023-03-01T16:46:52;6.60;48.70
70244;DHT22;57634;51.136;17.024;2023-03-01T16:49:54;6.60;48.90
70244;DHT22;57634;51.136;17.024;2023-03-01T16:52:55;6.50;49.20
70244;DHT22;57634;51.136;17.024;2023-03-01T16:55:58;6.40;49.40
70244;DHT22;57634;51.136;17.024;2023-03-01T16:59:28;6.40;49.70
70244;DHT22;57634;51.136;17.024;2023-03-01T17:02:29;6.30;50.00
70244;DHT22;57634;51.136;17.024;2023-03-01T17:05:30;6.20;50.30
70244;DHT22;57634;51.136;17.024;2023-03-01T17:08:32;6.10;50.60
70244;DHT22;57634;51.136;17.024;2023-03-01T17:11:35;6.10;50.90
70244;DHT22;57634;51.136;17.024;2023-03-01T17:14:36;6.00;51.10
70244;DHT22;57634;51.136;17.024;2023-03-01T17:17:39;6.00;51.40
70244;DHT22;57634;51.136;17.024;2023-03-01T17:20:40;5.90;51.50
70244;DHT22;57634;51.136;17.024;2023-03-01T17:23:44;5.80;51.70
70244;DHT22;57634;51.136;17.024;2023-03-01T17:26:46;5.80;51.90
70244;DHT22;57634;51.136;17.024;2023-03-01T17:29:47;5.80;52.10
70244;DHT22;57634;51.136;17.024;2023-03-01T17:32:49;5.70;52.30
70244;DHT22;57634;51.136;17.024;2023-03-01T17:35:53;5.70;52.50
70244;DHT22;57634;51.136;17.024;2023-03-01T17:39:21;5.60;52.60
70244;DHT22;57634;51.136;17.024;2023-03-01T17:42:28;5.60;52.80
70244;DHT22;57634;51.136;17.024;2023-03-01T17:45:30;5.50;52.90
70244;DHT22;57634;51.136;17.024;2023-03-01T17:48:32;5.40;53.10
70244;DHT22;57634;51.136;17.024;2023-03-01T17:51:33;5.30;53.30
70244;DHT22;57634;51.136;17.024;2023-03-01T17:54:34;5.30;53.50
70244;DHT22;57634;51.136;17.024;2023-03-01T17:57:39;5.20;53.60
70244;DHT22;57634;51.136;17.024;2023-03-01T18:00:41;5.20;53.80
70244;DHT22;57634;51.136;17.024;2023-03-01T18:03:43;5.10;53.80
70244;DHT22;57634;51.136;17.024;2023-03-01T18:06:45;5.10;53.90
70244;DHT22;57634;51.136;17.024;2023-03-01T18:09:46;5.00;54.00
70244;DHT22;57634;51.136;17.024;2023-03-01T18:12:47;5.00;54.20
70244;DHT22;57634;51.136;17.024;2023-03-01T18:16:17;4.90;54.30
70244;DHT22;57634;51.136;17.024;2023-03-01T18:19:19;4.80;54.40
70244;DHT22;57634;51.136;17.024;2023-03-01T18:22:21;4.80;54.60
70244;DHT22;57634;51.136;17.024;2023-03-01T18:25:23;4.70;54.80
70244;DHT22;57634;51.136;17.024;2023-03-01T18:28:24;4.70;55.00
70244;DHT22;57634;51.136;17.024;2023-03-01T18:31:26;4.60;55.10
70244;DHT22;57634;51.136;17.024;2023-03-01T18:34:28;4.60;55.40
70244;DHT22;57634;51.136;17.024;2023-03-01T18:37:30;4.50;55.60
70244;DHT22;57634;51.136;17.024;2023-03-01T18:40:31;4.40;55.80
70244;DHT22;57634;51.136;17.024;2023-03-01T18:43:33;4.40;56.00
70244;DHT22;57634;51.136;17.024;2023-03-01T18:46:35;4.30;56.20
70244;DHT22;57634;51.136;17.024;2023-03-01T18:49:39;4.30;56.30
70244;DHT22;57634;51.136;17.024;2023-03-01T18:52:41;4.20;56.40
70244;DHT22;57634;51.136;17.024;2023-03-01T18:56:11;4.10;56.50
70244;DHT22;57634;51.136;17.024;2023-03-01T18:59:12;4.10;56.60
70244;DHT22;57634;51.136;17.024;2023-03-01T19:02:13;4.00;56.70
70244;DHT22;57634;51.136;17.024;2023-03-01T19:05:15;4.00;56.70
70244;DHT22;57634;51.136;17.024;2023-03-01T19:08:16;4.00;56.90
70244;DHT22;57634;51.136;17.024;2023-03-01T19:11:17;3.90;57.00
70244;DHT22;57634;51.136;17.024;2023-03-01T19:14:18;3.90;57.10
70244;DHT22;57634;51.136;17.024;2023-03-01T19:17:23;3.90;57.30
70244;DHT22;57634;51.136;17.024;2023-03-01T19:20:30;3.80;57.30
70244;DHT22;57634;51.136;17.024;2023-03-01T19:23:32;3.80;57.50
70244;DHT22;57634;51.136;17.024;2023-03-01T19:26:34;3.80;57.60
70244;DHT22;57634;51.136;17.024;2023-03-01T19:29:36;3.70;57.70
70244;DHT22;57634;51.136;17.024;2023-03-01T19:32:37;3.70;57.80
70244;DHT22;57634;51.136;17.024;2023-03-01T19:36:05;3.70;57.90
70244;DHT22;57634;51.136;17.024;2023-03-01T19:39:09;3.60;58.10
70244;DHT22;57634;51.136;17.024;2023-03-01T19:42:13;3.60;58.20
70244;DHT22;57634;51.136;17.024;2023-03-01T19:45:14;3.60;58.30
70244;DHT22;57634;51.136;17.024;2023-03-01T19:48:16;3.50;58.40
70244;DHT22;57634;51.136;17.024;2023-03-01T19:51:17;3.50;58.50
70244;DHT22;57634;51.136;17.024;2023-03-01T19:54:19;3.40;58.60
70244;DHT22;57634;51.136;17.024;2023-03-01T19:57:22;3.40;58.80
70244;DHT22;57634;51.136;17.024;2023-03-01T20:00:24;3.30;59.00
70244;DHT22;57634;51.136;17.024;2023-03-01T20:03:30;3.30;59.10
70244;DHT22;57634;51.136;17.024;2023-03-01T20:06:32;3.30;59.30
70244;DHT22;57634;51.136;17.024;2023-03-01T20:09:33;3.20;59.50
70244;DHT22;57634;51.136;17.024;2023-03-01T20:13:01;3.20;59.50
70244;DHT22;57634;51.136;17.024;2023-03-01T20:16:03;3.20;59.70
70244;DHT22;57634;51.136;17.024;2023-03-01T20:19:05;3.10;59.80
70244;DHT22;57634;51.136;17.024;2023-03-01T20:22:07;3.10;60.00
70244;DHT22;57634;51.136;17.024;2023-03-01T20:25:09;3.10;60.00
70244;DHT22;57634;51.136;17.024;2023-03-01T20:28:11;3.00;60.10
70244;DHT22;57634;51.136;17.024;2023-03-01T20:31:14;3.00;60.30
70244;DHT22;57634;51.136;17.024;2023-03-01T20:34:15;3.00;60.60
70244;DHT22;57634;51.136;17.024;2023-03-01T20:37:17;2.90;60.60
70244;DHT22;57634;51.136;17.024;2023-03-01T20:40:18;2.90;60.70
70244;DHT22;57634;51.136;17.024;2023-03-01T20:43:26;2.80;60.80
70244;DHT22;57634;51.136;17.024;2023-03-01T20:46:28;2.80;60.90
70244;DHT22;57634;51.136;17.024;2023-03-01T20:49:58;2.80;60.90
70244;DHT22;57634;51.136;17.024;2023-03-01T20:53:03;2.70;61.10
70244;DHT22;57634;51.136;17.024;2023-03-01T20:56:10;2.70;61.30
70244;DHT22;57634;51.136;17.024;2023-03-01T20:59:12;2.60;61.30
70244;DHT22;57634;51.136;17.024;2023-03-01T21:02:13;2.60;61.40
70244;DHT22;57634;51.136;17.024;2023-03-01T21:05:14;2.50;61.50
70244;DHT22;57634;51.136;17.024;2023-03-01T21:08:15;2.50;61.60
70244;DHT22;57634;51.136;17.024;2023-03-01T21:11:16;2.50;61.70
70244;DHT22;57634;51.136;17.024;2023-03-01T21:14:19;2.40;61.90
70244;DHT22;57634;51.136;17.024;2023-03-01T21:17:22;2.40;62.00